createdAt,value
2018-05-08T00:00:17.442Z,9.73
2018-05-08T00:02:45.135Z,7.57
2018-05-08T00:05:12.788Z,8.10
2018-05-08T00:07:40.472Z,8.67
2018-05-08T00:10:08.884Z,8.30
2018-05-08T00:12:36.556Z,8.33
2018-05-08T00:15:04.207Z,8.03
2018-05-08T00:17:31.885Z,8.30
2018-05-08T00:19:59.549Z,8.83
2018-05-08T00:22:27.227Z,8.73
2018-05-08T00:24:54.888Z,9.17
2018-05-08T00:27:22.563Z,8.93
2018-05-08T00:29:50.220Z,10.00
2018-05-08T00:32:17.913Z,10.13
2018-05-08T00:34:46.329Z,9.67
2018-05-08T00:37:13.979Z,8.20
2018-05-08T00:39:41.667Z,10.40
2018-05-08T00:42:10.627Z,9.60
2018-05-08T00:44:38.313Z,10.40
2018-05-08T00:47:06.755Z,10.77
2018-05-08T00:49:35.217Z,8.83
2018-05-08T00:52:03.647Z,10.20
2018-05-08T00:54:43.274Z,9.57
2018-05-08T00:57:10.930Z,9.50
2018-05-08T00:59:39.661Z,9.20
2018-05-08T01:02:07.310Z,9.90
2018-05-08T01:04:34.989Z,8.83
2018-05-08T01:07:02.653Z,10.83
2018-05-08T01:09:30.349Z,9.87
2018-05-08T01:11:58.012Z,9.70
2018-05-08T01:14:25.739Z,10.07
2018-05-08T01:16:53.400Z,9.90
2018-05-08T01:19:21.078Z,10.43
2018-05-08T01:21:48.728Z,9.73
2018-05-08T01:24:16.409Z,10.30
2018-05-08T01:26:44.815Z,10.60
2018-05-08T01:29:12.515Z,10.83
2018-05-08T01:31:40.195Z,9.80
2018-05-08T01:34:09.691Z,10.37
2018-05-08T01:36:37.343Z,11.17
2018-05-08T01:39:05.928Z,11.60
2018-05-08T01:41:33.590Z,10.10
2018-05-08T01:44:01.658Z,9.60
2018-05-08T01:46:29.343Z,8.80
2018-05-08T01:48:57.774Z,9.97
2018-05-08T01:51:25.469Z,9.10
2018-05-08T01:53:53.107Z,9.40
2018-05-08T01:56:20.789Z,8.50
2018-05-08T01:58:48.451Z,9.33
2018-05-08T02:01:16.128Z,9.13
2018-05-08T02:03:43.784Z,9.57
2018-05-08T02:06:11.443Z,9.90
2018-05-08T02:08:40.414Z,8.53
2018-05-08T02:11:09.119Z,9.30
2018-05-08T02:13:36.759Z,8.80
2018-05-08T02:16:04.459Z,8.23
2018-05-08T02:18:32.879Z,9.23
2018-05-08T02:21:00.540Z,10.07
2018-05-08T02:23:28.237Z,8.90
2018-05-08T02:25:55.901Z,9.60
2018-05-08T02:28:23.600Z,9.73
2018-05-08T02:30:51.271Z,9.00
2018-05-08T02:33:18.962Z,10.10
2018-05-08T02:35:46.643Z,10.20
2018-05-08T02:38:14.301Z,10.37
2018-05-08T02:40:41.986Z,10.17
2018-05-08T02:43:10.865Z,9.70
2018-05-08T02:45:39.649Z,9.80
2018-05-08T02:48:07.339Z,9.53
2018-05-08T02:50:34.988Z,9.90
2018-05-08T02:53:03.446Z,9.57
2018-05-08T02:55:31.124Z,10.37
2018-05-08T02:57:58.784Z,9.50
2018-05-08T03:00:26.462Z,9.67
2018-05-08T03:02:54.877Z,9.77
2018-05-08T03:05:22.579Z,9.63
2018-05-08T03:07:50.252Z,9.90
2018-05-08T03:10:17.934Z,8.17
2018-05-08T03:12:45.596Z,7.93
2018-05-08T03:15:13.308Z,8.40
2018-05-08T03:17:40.973Z,8.37
2018-05-08T03:20:09.642Z,8.27
2018-05-08T03:22:37.325Z,8.87
2018-05-08T03:25:04.986Z,8.30
2018-05-08T03:27:32.667Z,9.13
2018-05-08T03:30:01.102Z,9.40
2018-05-08T03:32:28.782Z,9.20
2018-05-08T03:34:56.437Z,8.77
2018-05-08T03:37:24.117Z,8.40
2018-05-08T03:39:51.778Z,9.60
2018-05-08T03:42:19.454Z,7.60
2018-05-08T03:44:47.100Z,8.83
2018-05-08T03:47:14.791Z,7.60
2018-05-08T03:49:43.213Z,9.30
2018-05-08T03:52:10.894Z,8.47
2018-05-08T03:54:40.167Z,8.77
2018-05-08T03:57:08.255Z,10.10
2018-05-08T03:59:35.918Z,9.20
2018-05-08T04:02:15.611Z,9.07
2018-05-08T04:04:56.014Z,8.87
2018-05-08T04:07:36.628Z,9.70
2018-05-08T04:10:05.043Z,9.13
2018-05-08T04:12:32.725Z,9.37
2018-05-08T04:15:00.447Z,9.87
2018-05-08T04:17:28.883Z,9.70
2018-05-08T04:19:56.588Z,8.63
2018-05-08T04:22:24.988Z,10.10
2018-05-08T04:24:52.695Z,9.70
2018-05-08T04:27:20.352Z,8.57
2018-05-08T04:29:48.026Z,9.00
2018-05-08T04:32:16.452Z,8.50
2018-05-08T04:34:44.138Z,10.43
2018-05-08T04:37:11.788Z,9.83
2018-05-08T04:39:40.011Z,9.70
2018-05-08T04:42:10.038Z,10.50
2018-05-08T04:44:39.519Z,10.30
2018-05-08T04:47:07.177Z,11.10
2018-05-08T04:49:34.893Z,11.50
2018-05-08T04:52:02.583Z,10.00
2018-05-08T04:54:30.330Z,11.23
2018-05-08T04:56:57.982Z,11.73
2018-05-08T04:59:25.626Z,10.03
2018-05-08T05:01:53.308Z,10.13
2018-05-08T05:04:20.940Z,9.03
2018-05-08T05:06:48.622Z,10.40
2018-05-08T05:09:16.278Z,10.23
2018-05-08T05:11:43.961Z,10.47
2018-05-08T05:14:11.620Z,10.90
2018-05-08T05:16:40.507Z,11.50
2018-05-08T05:19:09.196Z,12.40
2018-05-08T05:21:36.886Z,11.40
2018-05-08T05:24:04.545Z,10.60
2018-05-08T05:26:32.231Z,10.20
2018-05-08T05:29:00.662Z,11.40
2018-05-08T05:31:28.346Z,12.27
2018-05-08T05:33:56.006Z,10.93
2018-05-08T05:36:23.707Z,13.00
2018-05-08T05:38:51.659Z,10.87
2018-05-08T05:41:20.093Z,10.43
2018-05-08T05:43:47.786Z,10.40
2018-05-08T05:46:15.461Z,11.63
2018-05-08T05:48:43.918Z,12.00
2018-05-08T05:51:11.582Z,10.97
2018-05-08T05:53:40.523Z,11.23
2018-05-08T05:56:09.367Z,10.93
2018-05-08T05:58:37.066Z,11.00
2018-05-08T06:01:04.758Z,11.43
2018-05-08T06:03:32.474Z,11.87
2018-05-08T06:06:00.947Z,11.23
2018-05-08T06:08:29.414Z,11.10
2018-05-08T06:10:57.092Z,11.93
2018-05-08T06:13:25.556Z,10.53
2018-05-08T06:15:53.237Z,11.60
2018-05-08T06:18:21.697Z,10.57
2018-05-08T06:20:49.373Z,10.40
2018-05-08T06:23:17.842Z,10.43
2018-05-08T06:25:45.511Z,9.47
2018-05-08T06:28:13.167Z,9.10
2018-05-08T06:30:40.855Z,9.03
2018-05-08T06:33:10.589Z,9.80
2018-05-08T06:35:39.319Z,8.53
2018-05-08T06:38:06.996Z,9.73
2018-05-08T06:40:35.459Z,9.70
2018-05-08T06:43:03.107Z,9.50
2018-05-08T06:45:30.787Z,9.40
2018-05-08T06:47:58.448Z,9.40
2018-05-08T06:50:26.128Z,9.93
2018-05-08T06:52:54.546Z,8.80
2018-05-08T06:55:22.246Z,9.67
2018-05-08T06:57:49.907Z,9.57
2018-05-08T07:00:17.570Z,9.30
2018-05-08T07:02:45.253Z,8.73
2018-05-08T07:05:13.678Z,8.00
2018-05-08T07:07:41.363Z,8.47
2018-05-08T07:10:09.034Z,8.77
2018-05-08T07:12:36.738Z,8.50
2018-05-08T07:15:04.383Z,8.90
2018-05-08T07:17:32.835Z,8.60
2018-05-08T07:20:00.488Z,7.67
2018-05-08T07:22:28.170Z,8.73
2018-05-08T07:24:55.829Z,8.20
2018-05-08T07:27:23.511Z,8.20
2018-05-08T07:29:51.956Z,7.57
2018-05-08T07:32:19.650Z,8.00
2018-05-08T07:34:48.078Z,7.20
2018-05-08T07:37:15.762Z,7.17
2018-05-08T07:39:43.426Z,6.77
2018-05-08T07:42:11.134Z,6.53
2018-05-08T07:44:38.796Z,7.50
2018-05-08T07:47:06.473Z,5.90
2018-05-08T07:49:34.149Z,6.70
2018-05-08T07:52:01.843Z,7.00
2018-05-08T07:54:29.508Z,6.60
2018-05-08T07:56:57.170Z,7.33
2018-05-08T07:59:24.834Z,5.40
2018-05-08T08:01:53.252Z,6.10
2018-05-08T08:04:20.920Z,5.10
2018-05-08T08:06:48.574Z,5.97
2018-05-08T08:09:16.263Z,5.27
2018-05-08T08:11:43.922Z,4.80
2018-05-08T08:14:11.606Z,4.23
2018-05-08T08:16:40.433Z,4.53
2018-05-08T08:19:09.274Z,4.50
2018-05-08T08:21:36.916Z,4.23
2018-05-08T08:24:04.613Z,4.47
2018-05-08T08:26:32.271Z,4.43
2018-05-08T08:28:59.928Z,4.00
2018-05-08T08:31:27.627Z,4.27
2018-05-08T08:33:55.282Z,3.97
2018-05-08T08:36:22.991Z,3.53
2018-05-08T08:38:50.658Z,3.87
2018-05-08T08:41:18.338Z,4.50
2018-05-08T08:43:46.006Z,3.60
2018-05-08T08:46:13.697Z,3.20
2018-05-08T08:48:41.373Z,3.37
2018-05-08T08:51:10.290Z,3.70
2018-05-08T08:53:37.947Z,3.20
2018-05-08T08:56:05.657Z,2.40
2018-05-08T08:58:33.301Z,3.30
2018-05-08T09:01:01.003Z,3.80
2018-05-08T09:03:28.657Z,2.93
2018-05-08T09:05:56.304Z,3.90
2018-05-08T09:08:24.750Z,3.90
2018-05-08T09:10:52.415Z,3.40
2018-05-08T09:13:20.092Z,2.73
2018-05-08T09:15:47.749Z,2.67
2018-05-08T09:18:15.426Z,2.50
2018-05-08T09:20:43.874Z,2.63
2018-05-08T09:23:11.553Z,2.23
2018-05-08T09:25:40.601Z,2.53
2018-05-08T09:28:09.231Z,2.80
2018-05-08T09:30:36.977Z,2.57
2018-05-08T09:33:04.659Z,3.10
2018-05-08T09:35:32.325Z,3.03
2018-05-08T09:38:00.779Z,2.50
2018-05-08T09:40:28.443Z,2.90
2018-05-08T09:42:56.121Z,3.03
2018-05-08T09:45:23.788Z,2.60
2018-05-08T09:47:51.477Z,3.30
2018-05-08T09:50:19.159Z,2.53
2018-05-08T09:52:46.795Z,3.50
2018-05-08T09:55:15.240Z,2.73
2018-05-08T09:57:42.897Z,2.70
2018-05-08T10:00:10.560Z,2.30
2018-05-08T10:02:39.351Z,3.30
2018-05-08T10:05:07.038Z,2.00
2018-05-08T10:07:35.468Z,1.90
2018-05-08T10:10:03.157Z,2.20
2018-05-08T10:12:30.813Z,2.60
2018-05-08T10:14:58.492Z,2.37
2018-05-08T10:17:26.923Z,2.40
2018-05-08T10:19:54.594Z,2.60
2018-05-08T10:22:22.243Z,2.70
2018-05-08T10:24:49.937Z,2.47
2018-05-08T10:27:17.606Z,3.63
2018-05-08T10:29:45.269Z,2.57
2018-05-08T10:32:12.961Z,2.90
2018-05-08T10:34:40.618Z,2.97
2018-05-08T10:37:09.468Z,2.33
2018-05-08T10:39:37.127Z,2.27
2018-05-08T10:42:04.803Z,2.40
2018-05-08T10:44:33.239Z,2.20
2018-05-08T10:47:00.941Z,2.73
2018-05-08T10:49:28.606Z,2.40
2018-05-08T10:51:56.286Z,2.80
2018-05-08T10:54:24.711Z,2.60
2018-05-08T10:56:52.390Z,2.70
2018-05-08T10:59:20.032Z,2.43
2018-05-08T11:01:47.741Z,2.33
2018-05-08T11:04:16.190Z,2.97
2018-05-08T11:06:43.850Z,2.30
2018-05-08T11:09:11.526Z,2.20
2018-05-08T11:11:39.883Z,2.83
2018-05-08T11:14:07.604Z,1.70
2018-05-08T11:16:36.950Z,2.47
2018-05-08T11:19:04.647Z,2.00
2018-05-08T11:21:33.083Z,1.80
2018-05-08T11:24:00.762Z,2.63
2018-05-08T11:26:28.492Z,2.40
2018-05-08T11:28:56.173Z,3.03
2018-05-08T11:31:23.836Z,2.70
2018-05-08T11:33:51.518Z,2.20
2018-05-08T11:36:19.178Z,2.40
2018-05-08T11:38:46.848Z,2.07
2018-05-08T11:41:14.506Z,2.50
2018-05-08T11:43:42.200Z,2.17
2018-05-08T11:46:11.198Z,2.37
2018-05-08T11:48:38.853Z,2.43
2018-05-08T11:51:06.538Z,2.10
2018-05-08T11:53:34.179Z,2.37
2018-05-08T11:56:01.860Z,2.77
2018-05-08T11:58:29.502Z,3.20
2018-05-08T12:00:57.231Z,2.10
2018-05-08T12:03:24.856Z,2.37
2018-05-08T12:05:52.533Z,2.23
2018-05-08T12:08:20.193Z,2.43
2018-05-08T12:10:47.869Z,2.47
2018-05-08T12:13:15.543Z,2.70
2018-05-08T12:15:43.238Z,2.93
2018-05-08T12:18:10.909Z,2.10
2018-05-08T12:20:39.829Z,2.67
2018-05-08T12:23:07.490Z,2.50
2018-05-08T12:25:36.921Z,2.30
2018-05-08T12:28:05.348Z,2.30
2018-05-08T12:30:33.012Z,2.00
2018-05-08T12:33:00.710Z,2.53
2018-05-08T12:35:28.356Z,2.50
2018-05-08T12:37:56.025Z,3.20
2018-05-08T12:40:23.689Z,3.10
2018-05-08T12:42:51.365Z,2.43
2018-05-08T12:45:19.023Z,2.30
2018-05-08T12:47:46.706Z,2.37
2018-05-08T12:50:15.131Z,2.60
2018-05-08T12:52:42.809Z,2.20
2018-05-08T12:55:10.474Z,3.33
2018-05-08T12:57:39.373Z,2.37
2018-05-08T13:00:07.039Z,2.40
2018-05-08T13:02:34.729Z,2.60
2018-05-08T13:05:02.432Z,2.10
2018-05-08T13:07:30.141Z,2.67
2018-05-08T13:09:58.568Z,2.50
2018-05-08T13:12:26.223Z,2.90
2018-05-08T13:14:53.905Z,2.70
2018-05-08T13:17:21.552Z,2.83
2018-05-08T13:19:49.243Z,2.90
2018-05-08T13:22:16.897Z,2.57
2018-05-08T13:24:44.581Z,2.67
2018-05-08T13:27:13.009Z,3.50
2018-05-08T13:29:40.690Z,2.83
2018-05-08T13:32:08.347Z,2.40
2018-05-08T13:34:36.029Z,4.80
2018-05-08T13:37:03.675Z,2.67
2018-05-08T13:39:31.344Z,2.60
2018-05-08T13:41:59.018Z,2.90
2018-05-08T13:44:27.475Z,3.10
2018-05-08T13:46:55.159Z,2.90
2018-05-08T13:49:22.877Z,2.63
2018-05-08T13:51:50.541Z,2.60
2018-05-08T13:54:18.233Z,2.80
2018-05-08T13:56:45.896Z,2.87
2018-05-08T13:59:13.554Z,3.10
2018-05-08T14:01:41.234Z,2.60
2018-05-08T14:04:08.917Z,3.90
2018-05-08T14:06:37.386Z,3.20
2018-05-08T14:09:05.808Z,3.20
2018-05-08T14:11:33.493Z,2.30
2018-05-08T14:14:01.171Z,3.10
2018-05-08T14:16:28.870Z,2.10
2018-05-08T14:18:56.546Z,3.73
2018-05-08T14:21:24.237Z,2.83
2018-05-08T14:23:51.910Z,2.80
2018-05-08T14:26:19.598Z,2.80
2018-05-08T14:28:48.030Z,2.83
2018-05-08T14:31:15.733Z,3.10
2018-05-08T14:33:43.395Z,3.90
2018-05-08T14:36:11.823Z,6.47
2018-05-08T14:38:40.685Z,3.47
2018-05-08T14:41:08.349Z,2.97
2018-05-08T14:43:36.157Z,3.60
2018-05-08T14:46:03.746Z,3.10
2018-05-08T14:48:31.435Z,3.07
2018-05-08T14:50:59.095Z,2.83
2018-05-08T14:53:26.773Z,2.90
2018-05-08T14:55:54.434Z,2.53
2018-05-08T14:58:22.117Z,2.70
2018-05-08T15:00:49.796Z,3.33
2018-05-08T15:03:17.490Z,2.90
2018-05-08T15:05:45.923Z,3.10
2018-05-08T15:08:13.607Z,2.70
2018-05-08T15:10:41.273Z,3.53
2018-05-08T15:13:08.990Z,2.67
2018-05-08T15:15:36.911Z,2.77
2018-05-08T15:18:04.570Z,3.33
2018-05-08T15:20:32.346Z,3.40
2018-05-08T15:22:59.947Z,2.67
2018-05-08T15:25:27.617Z,2.90
2018-05-08T15:27:55.277Z,2.73
2018-05-08T15:30:22.977Z,3.23
2018-05-08T15:32:50.619Z,3.33
2018-05-08T15:35:18.294Z,2.57
2018-05-08T15:37:45.951Z,3.70
2018-05-08T15:40:13.634Z,2.73
2018-05-08T15:42:42.072Z,3.03
2018-05-08T15:45:10.735Z,2.70
2018-05-08T15:47:39.136Z,2.50
2018-05-08T15:50:06.782Z,2.57
2018-05-08T15:52:34.465Z,2.40
2018-05-08T15:55:02.114Z,2.67
2018-05-08T15:57:29.784Z,2.43
2018-05-08T15:59:57.443Z,2.97
2018-05-08T16:02:25.127Z,3.37
2018-05-08T16:04:52.772Z,2.90
2018-05-08T16:07:20.462Z,2.43
2018-05-08T16:09:48.118Z,2.77
2018-05-08T16:12:15.803Z,2.70
2018-05-08T16:14:44.235Z,2.60
2018-05-08T16:17:11.925Z,2.90
2018-05-08T16:19:40.366Z,2.83
2018-05-08T16:22:08.991Z,2.60
2018-05-08T16:24:36.655Z,2.70
2018-05-08T16:27:05.111Z,3.23
2018-05-08T16:29:32.779Z,3.60
2018-05-08T16:32:00.462Z,2.70
2018-05-08T16:34:28.893Z,2.60
2018-05-08T16:36:56.539Z,2.97
2018-05-08T16:39:24.280Z,3.00
2018-05-08T16:41:51.918Z,3.50
2018-05-08T16:44:20.369Z,2.67
2018-05-08T16:46:48.037Z,2.90
2018-05-08T16:49:15.718Z,3.20
2018-05-08T16:51:43.375Z,3.10
2018-05-08T16:54:11.054Z,3.10
2018-05-08T16:56:40.244Z,3.03
2018-05-08T16:59:09.620Z,3.03
2018-05-08T17:01:37.264Z,3.17
2018-05-08T17:04:04.933Z,3.67
2018-05-08T17:06:32.601Z,3.90
2018-05-08T17:09:00.297Z,3.67
2018-05-08T17:11:28.736Z,3.57
2018-05-08T17:13:56.400Z,3.03
2018-05-08T17:16:24.068Z,3.43
2018-05-08T17:18:51.725Z,3.70
2018-05-08T17:21:19.414Z,4.33
2018-05-08T17:23:47.855Z,3.30
2018-05-08T17:26:15.552Z,3.23
2018-05-08T17:28:43.664Z,3.40
2018-05-08T17:31:11.350Z,3.70
2018-05-08T17:33:39.062Z,3.23
2018-05-08T17:36:07.499Z,3.00
2018-05-08T17:38:36.688Z,5.83
2018-05-08T17:41:04.371Z,3.70
2018-05-08T17:43:32.039Z,3.90
2018-05-08T17:45:59.734Z,4.53
2018-05-08T17:48:27.404Z,4.67
2018-05-08T17:50:55.090Z,5.50
2018-05-08T17:53:22.763Z,5.20
2018-05-08T17:55:51.202Z,4.90
2018-05-08T17:58:18.898Z,6.13
2018-05-08T18:00:46.590Z,3.50
2018-05-08T18:03:14.280Z,6.40
2018-05-08T18:05:42.691Z,5.73
2018-05-08T18:08:10.355Z,7.40
2018-05-08T18:10:38.609Z,5.97
2018-05-08T18:13:06.302Z,4.30
2018-05-08T18:15:33.963Z,4.50
2018-05-08T18:18:01.651Z,4.70
2018-05-08T18:20:29.297Z,6.07
2018-05-08T18:22:56.978Z,6.63
2018-05-08T18:25:24.634Z,6.93
2018-05-08T18:27:52.321Z,13.93
2018-05-08T18:30:20.752Z,12.63
2018-05-08T18:32:48.420Z,8.63
2018-05-08T18:35:16.089Z,6.40
2018-05-08T18:37:43.810Z,6.37
2018-05-08T18:40:11.467Z,5.23
2018-05-08T18:42:39.792Z,6.93
2018-05-08T18:45:07.983Z,6.37
2018-05-08T18:47:36.666Z,11.47
2018-05-08T18:50:04.343Z,7.70
2018-05-08T18:52:32.770Z,7.70
2018-05-08T18:55:00.472Z,8.10
2018-05-08T18:57:28.922Z,10.47
2018-05-08T19:00:02.227Z,8.17
2018-05-08T19:02:29.886Z,12.73
2018-05-08T19:04:57.552Z,9.90
2018-05-08T19:07:25.215Z,4.93
2018-05-08T19:09:52.956Z,6.57
2018-05-08T19:12:20.822Z,5.73
2018-05-08T19:14:54.243Z,6.87
2018-05-08T19:17:21.919Z,5.70
2018-05-08T19:19:56.010Z,7.67
2018-05-08T19:22:23.677Z,4.40
2018-05-08T19:24:51.336Z,4.23
2018-05-08T19:27:18.997Z,5.20
2018-05-08T19:29:52.472Z,12.03
2018-05-08T19:32:20.159Z,14.37
2018-05-08T19:34:53.626Z,11.40
2018-05-08T19:37:27.014Z,17.33
2018-05-08T19:39:54.682Z,6.43
2018-05-08T19:42:22.367Z,5.47
2018-05-08T19:44:50.026Z,7.27
2018-05-08T19:47:17.717Z,11.97
2018-05-08T19:49:46.169Z,9.80
2018-05-08T19:52:13.865Z,8.47
2018-05-08T19:54:42.283Z,5.90
2018-05-08T19:57:09.995Z,5.10
2018-05-08T19:59:38.239Z,6.63
2018-05-08T20:02:06.699Z,7.77
2018-05-08T20:04:34.346Z,5.90
2018-05-08T20:07:02.755Z,4.80
2018-05-08T20:09:30.432Z,4.40
2018-05-08T20:11:58.093Z,4.40
2018-05-08T20:14:25.782Z,4.20
2018-05-08T20:16:54.210Z,4.50
2018-05-08T20:19:21.901Z,4.07
2018-05-08T20:21:49.564Z,5.00
2018-05-08T20:24:17.248Z,4.40
2018-05-08T20:26:45.679Z,4.73
2018-05-08T20:29:13.358Z,4.33
2018-05-08T20:31:41.019Z,4.23
2018-05-08T20:34:09.702Z,4.10
2018-05-08T20:36:37.361Z,4.30
2018-05-08T20:39:05.985Z,6.70
2018-05-08T20:41:33.654Z,5.60
2018-05-08T20:44:01.350Z,6.23
2018-05-08T20:46:29.028Z,4.30
2018-05-08T20:48:56.678Z,5.40
2018-05-08T20:51:24.354Z,4.27
2018-05-08T20:53:51.998Z,4.80
2018-05-08T20:56:19.690Z,5.00
2018-05-08T20:58:47.346Z,4.93
2018-05-08T21:01:15.093Z,4.67
2018-05-08T21:03:42.712Z,5.50
2018-05-08T21:06:10.421Z,5.10
2018-05-08T21:08:39.119Z,5.23
2018-05-08T21:11:06.803Z,4.50
2018-05-08T21:13:35.252Z,5.13
2018-05-08T21:16:02.933Z,4.20
2018-05-08T21:18:30.595Z,5.33
2018-05-08T21:20:58.278Z,5.43
2018-05-08T21:23:25.940Z,4.90
2018-05-08T21:25:54.385Z,5.50
2018-05-08T21:28:27.636Z,4.73
2018-05-08T21:31:01.113Z,5.10
2018-05-08T21:33:28.799Z,5.10
2018-05-08T21:35:56.455Z,4.87
2018-05-08T21:38:24.199Z,5.17
2018-05-08T21:40:51.855Z,5.37
2018-05-08T21:43:20.301Z,4.93
2018-05-08T21:45:47.960Z,5.07
2018-05-08T21:48:15.652Z,4.83
2018-05-08T21:50:44.077Z,4.67
2018-05-08T21:53:11.763Z,4.83
2018-05-08T21:55:40.461Z,4.87
2018-05-08T21:58:09.338Z,5.30
2018-05-08T22:00:36.998Z,5.20
2018-05-08T22:03:04.682Z,5.53
2018-05-08T22:05:33.125Z,5.57
2018-05-08T22:08:00.817Z,4.80
2018-05-08T22:10:28.456Z,5.07
2018-05-08T22:12:56.128Z,4.97
2018-05-08T22:15:23.769Z,5.07
2018-05-08T22:17:51.447Z,5.97
2018-05-08T22:20:19.176Z,5.20
2018-05-08T22:22:46.811Z,5.90
2018-05-08T22:25:14.460Z,4.37
2018-05-08T22:27:42.897Z,5.73
2018-05-08T22:30:10.552Z,5.90
2018-05-08T22:32:39.250Z,6.60
2018-05-08T22:35:06.907Z,6.10
2018-05-08T22:37:34.643Z,7.00
2018-05-08T22:40:02.279Z,7.37
2018-05-08T22:42:29.964Z,6.90
2018-05-08T22:44:57.603Z,6.67
2018-05-08T22:47:26.004Z,6.70
2018-05-08T22:49:53.671Z,7.73
2018-05-08T22:52:21.317Z,6.77
2018-05-08T22:54:49.018Z,7.77
2018-05-08T22:57:16.667Z,7.27
2018-05-08T22:59:44.351Z,8.30
2018-05-08T23:02:11.992Z,6.87
2018-05-08T23:04:41.004Z,6.50
2018-05-08T23:07:09.647Z,6.67
2018-05-08T23:09:37.336Z,6.90
2018-05-08T23:12:04.995Z,7.23
2018-05-08T23:14:32.679Z,7.60
2018-05-08T23:17:00.317Z,8.17
2018-05-08T23:19:28.024Z,7.90
2018-05-08T23:21:56.462Z,8.10
2018-05-08T23:24:24.138Z,8.00
2018-05-08T23:26:51.778Z,7.57
2018-05-08T23:29:19.440Z,7.67
2018-05-08T23:31:47.106Z,8.43
2018-05-08T23:34:14.791Z,8.13
2018-05-08T23:36:42.428Z,9.23
2018-05-08T23:39:10.066Z,8.93
2018-05-08T23:41:38.261Z,9.30
2018-05-08T23:44:05.908Z,9.53
2018-05-08T23:46:33.585Z,7.83
2018-05-08T23:49:01.231Z,7.77
2018-05-08T23:51:28.919Z,9.60
2018-05-08T23:53:56.582Z,9.07
2018-05-08T23:56:24.263Z,8.50
2018-05-08T23:58:52.692Z,8.30
